sensor_id;sensor_type;location;lat;lon;timestamp;temperature;humidity
15355;DHT22;7777;52.254;9.618;2022-07-22T00:01:31;20.70;96.00
15355;DHT22;7777;52.254;9.618;2022-07-22T00:03:57;20.60;96.10
15355;DHT22;7777;52.254;9.618;2022-07-22T00:06:23;20.60;96.00
15355;DHT22;7777;52.254;9.618;2022-07-22T00:08:49;20.60;96.10
15355;DHT22;7777;52.254;9.618;2022-07-22T00:11:14;20.60;96.30
15355;DHT22;7777;52.254;9.618;2022-07-22T00:13:40;20.60;96.10
15355;DHT22;7777;52.254;9.618;2022-07-22T00:16:06;20.60;96.40
15355;DHT22;7777;52.254;9.618;2022-07-22T00:18:32;20.60;96.50
15355;DHT22;7777;52.254;9.618;2022-07-22T00:20:58;20.50;96.50
15355;DHT22;7777;52.254;9.618;2022-07-22T00:23:23;20.60;95.80
15355;DHT22;7777;52.254;9.618;2022-07-22T00:25:49;20.60;96.90
15355;DHT22;7777;52.254;9.618;2022-07-22T00:28:15;20.50;96.70
15355;DHT22;7777;52.254;9.618;2022-07-22T00:30:41;20.50;96.20
15355;DHT22;7777;52.254;9.618;2022-07-22T00:33:06;20.50;96.20
15355;DHT22;7777;52.254;9.618;2022-07-22T00:35:32;20.50;96.40
15355;DHT22;7777;52.254;9.618;2022-07-22T00:37:58;20.60;96.40
15355;DHT22;7777;52.254;9.618;2022-07-22T00:40:24;20.50;96.60
15355;DHT22;7777;52.254;9.618;2022-07-22T00:42:49;20.50;96.80
15355;DHT22;7777;52.254;9.618;2022-07-22T00:45:16;20.50;96.80
15355;DHT22;7777;52.254;9.618;2022-07-22T00:47:41;20.50;96.40
15355;DHT22;7777;52.254;9.618;2022-07-22T00:50:08;20.50;96.10
15355;DHT22;7777;52.254;9.618;2022-07-22T00:52:34;20.50;96.50
15355;DHT22;7777;52.254;9.618;2022-07-22T00:55:01;20.60;96.60
15355;DHT22;7777;52.254;9.618;2022-07-22T00:57:28;20.60;96.60
15355;DHT22;7777;52.254;9.618;2022-07-22T00:59:55;20.60;97.00
15355;DHT22;7777;52.254;9.618;2022-07-22T01:02:21;20.60;96.90
15355;DHT22;7777;52.254;9.618;2022-07-22T01:04:47;20.60;96.40
15355;DHT22;7777;52.254;9.618;2022-07-22T01:07:13;20.60;96.10
15355;DHT22;7777;52.254;9.618;2022-07-22T01:09:45;20.60;96.90
15355;DHT22;7777;52.254;9.618;2022-07-22T01:12:11;20.60;97.50
15355;DHT22;7777;52.254;9.618;2022-07-22T01:14:37;20.60;96.60
15355;DHT22;7777;52.254;9.618;2022-07-22T01:17:04;20.60;97.30
15355;DHT22;7777;52.254;9.618;2022-07-22T01:19:29;20.60;96.50
15355;DHT22;7777;52.254;9.618;2022-07-22T01:21:55;20.70;96.30
15355;DHT22;7777;52.254;9.618;2022-07-22T01:24:21;20.70;96.80
15355;DHT22;7777;52.254;9.618;2022-07-22T01:26:48;20.70;97.50
15355;DHT22;7777;52.254;9.618;2022-07-22T01:29:13;20.70;97.80
15355;DHT22;7777;52.254;9.618;2022-07-22T01:31:39;20.70;97.90
15355;DHT22;7777;52.254;9.618;2022-07-22T01:34:05;20.70;98.00
15355;DHT22;7777;52.254;9.618;2022-07-22T01:36:31;20.70;98.30
15355;DHT22;7777;52.254;9.618;2022-07-22T01:38:57;20.70;98.70
15355;DHT22;7777;52.254;9.618;2022-07-22T01:41:23;20.70;99.40
15355;DHT22;7777;52.254;9.618;2022-07-22T01:43:48;20.70;99.10
15355;DHT22;7777;52.254;9.618;2022-07-22T01:46:14;20.70;98.90
15355;DHT22;7777;52.254;9.618;2022-07-22T01:48:40;20.70;98.20
15355;DHT22;7777;52.254;9.618;2022-07-22T01:51:06;20.80;98.30
15355;DHT22;7777;52.254;9.618;2022-07-22T01:53:32;20.80;98.30
15355;DHT22;7777;52.254;9.618;2022-07-22T01:55:58;20.80;99.10
15355;DHT22;7777;52.254;9.618;2022-07-22T01:58:23;20.80;99.20
15355;DHT22;7777;52.254;9.618;2022-07-22T02:00:49;20.80;99.30
15355;DHT22;7777;52.254;9.618;2022-07-22T02:03:15;20.80;99.90
15355;DHT22;7777;52.254;9.618;2022-07-22T02:05:41;20.80;99.30
15355;DHT22;7777;52.254;9.618;2022-07-22T02:08:09;20.70;99.50
15355;DHT22;7777;52.254;9.618;2022-07-22T02:10:36;20.70;99.60
15355;DHT22;7777;52.254;9.618;2022-07-22T02:13:03;20.70;99.80
15355;DHT22;7777;52.254;9.618;2022-07-22T02:15:29;20.70;99.90
15355;DHT22;7777;52.254;9.618;2022-07-22T02:17:55;20.60;99.40
15355;DHT22;7777;52.254;9.618;2022-07-22T02:20:21;20.60;99.90
15355;DHT22;7777;52.254;9.618;2022-07-22T02:22:47;20.60;99.80
15355;DHT22;7777;52.254;9.618;2022-07-22T02:25:13;20.50;99.90
15355;DHT22;7777;52.254;9.618;2022-07-22T02:27:40;20.40;99.80
15355;DHT22;7777;52.254;9.618;2022-07-22T02:30:07;20.40;99.70
15355;DHT22;7777;52.254;9.618;2022-07-22T02:32:34;20.30;99.90
15355;DHT22;7777;52.254;9.618;2022-07-22T02:35:00;20.20;99.90
15355;DHT22;7777;52.254;9.618;2022-07-22T02:37:26;20.20;99.90
15355;DHT22;7777;52.254;9.618;2022-07-22T02:39:52;20.10;99.90
15355;DHT22;7777;52.254;9.618;2022-07-22T02:42:17;20.10;99.90
15355;DHT22;7777;52.254;9.618;2022-07-22T02:44:43;20.00;99.80
15355;DHT22;7777;52.254;9.618;2022-07-22T02:47:09;20.00;99.90
15355;DHT22;7777;52.254;9.618;2022-07-22T02:49:35;19.90;99.70
15355;DHT22;7777;52.254;9.618;2022-07-22T02:52:00;19.90;99.70
15355;DHT22;7777;52.254;9.618;2022-07-22T02:54:26;19.90;99.80
15355;DHT22;7777;52.254;9.618;2022-07-22T02:56:52;19.80;99.90
15355;DHT22;7777;52.254;9.618;2022-07-22T02:59:17;19.80;99.90
15355;DHT22;7777;52.254;9.618;2022-07-22T03:01:43;19.70;99.70
15355;DHT22;7777;52.254;9.618;2022-07-22T03:04:09;19.70;99.90
15355;DHT22;7777;52.254;9.618;2022-07-22T03:06:35;19.60;99.90
15355;DHT22;7777;52.254;9.618;2022-07-22T03:09:01;19.60;99.90
15355;DHT22;7777;52.254;9.618;2022-07-22T03:11:27;19.60;99.90
15355;DHT22;7777;52.254;9.618;2022-07-22T03:13:52;19.60;99.90
15355;DHT22;7777;52.254;9.618;2022-07-22T03:16:18;19.50;99.90
15355;DHT22;7777;52.254;9.618;2022-07-22T03:18:44;19.50;99.90
15355;DHT22;7777;52.254;9.618;2022-07-22T03:21:10;19.50;99.90
15355;DHT22;7777;52.254;9.618;2022-07-22T03:23:35;19.50;99.90
15355;DHT22;7777;52.254;9.618;2022-07-22T03:26:01;19.40;99.90
15355;DHT22;7777;52.254;9.618;2022-07-22T03:28:27;19.40;99.90
15355;DHT22;7777;52.254;9.618;2022-07-22T03:30:53;19.40;99.90
15355;DHT22;7777;52.254;9.618;2022-07-22T03:33:19;19.30;99.90
15355;DHT22;7777;52.254;9.618;2022-07-22T03:35:45;19.30;99.90
15355;DHT22;7777;52.254;9.618;2022-07-22T03:38:11;19.20;99.90
15355;DHT22;7777;52.254;9.618;2022-07-22T03:40:36;19.20;99.90
15355;DHT22;7777;52.254;9.618;2022-07-22T03:43:02;19.20;99.90
15355;DHT22;7777;52.254;9.618;2022-07-22T03:45:28;19.20;99.90
15355;DHT22;7777;52.254;9.618;2022-07-22T03:47:54;19.20;99.90
15355;DHT22;7777;52.254;9.618;2022-07-22T03:50:23;19.20;99.90
15355;DHT22;7777;52.254;9.618;2022-07-22T03:52:53;19.20;99.90
15355;DHT22;7777;52.254;9.618;2022-07-22T03:55:18;19.10;99.90
15355;DHT22;7777;52.254;9.618;2022-07-22T03:57:44;19.10;99.90
15355;DHT22;7777;52.254;9.618;2022-07-22T04:00:10;19.10;99.90
15355;DHT22;7777;52.254;9.618;2022-07-22T04:02:36;19.00;99.90
15355;DHT22;7777;52.254;9.618;2022-07-22T04:05:02;19.00;99.90
15355;DHT22;7777;52.254;9.618;2022-07-22T04:07:28;18.90;99.90
15355;DHT22;7777;52.254;9.618;2022-07-22T04:09:54;18.90;99.90
15355;DHT22;7777;52.254;9.618;2022-07-22T04:12:34;18.90;99.90
15355;DHT22;7777;52.254;9.618;2022-07-22T04:15:03;18.90;99.90
15355;DHT22;7777;52.254;9.618;2022-07-22T04:17:29;18.90;99.90
15355;DHT22;7777;52.254;9.618;2022-07-22T04:19:56;18.90;99.90
15355;DHT22;7777;52.254;9.618;2022-07-22T04:22:25;18.90;99.90
15355;DHT22;7777;52.254;9.618;2022-07-22T04:24:51;18.90;99.90
15355;DHT22;7777;52.254;9.618;2022-07-22T04:27:16;18.80;99.90
15355;DHT22;7777;52.254;9.618;2022-07-22T04:29:42;18.80;99.90
15355;DHT22;7777;52.254;9.618;2022-07-22T04:32:08;18.80;99.90
15355;DHT22;7777;52.254;9.618;2022-07-22T04:34:33;18.80;99.90
15355;DHT22;7777;52.254;9.618;2022-07-22T04:36:59;18.70;99.90
15355;DHT22;7777;52.254;9.618;2022-07-22T04:39:25;18.80;99.90
15355;DHT22;7777;52.254;9.618;2022-07-22T04:41:51;18.70;99.90
15355;DHT22;7777;52.254;9.618;2022-07-22T04:44:17;18.70;99.90
15355;DHT22;7777;52.254;9.618;2022-07-22T04:46:43;18.60;99.90
15355;DHT22;7777;52.254;9.618;2022-07-22T04:49:09;18.70;99.90
15355;DHT22;7777;52.254;9.618;2022-07-22T04:51:35;18.70;99.90
15355;DHT22;7777;52.254;9.618;2022-07-22T04:54:00;18.60;99.90
15355;DHT22;7777;52.254;9.618;2022-07-22T04:56:26;18.60;99.90
15355;DHT22;7777;52.254;9.618;2022-07-22T04:58:52;18.60;99.90
15355;DHT22;7777;52.254;9.618;2022-07-22T05:01:17;18.60;99.90
15355;DHT22;7777;52.254;9.618;2022-07-22T05:03:43;18.60;99.90
15355;DHT22;7777;52.254;9.618;2022-07-22T05:06:09;18.50;99.90
15355;DHT22;7777;52.254;9.618;2022-07-22T05:08:35;18.50;99.90
15355;DHT22;7777;52.254;9.618;2022-07-22T05:11:01;18.50;99.90
15355;DHT22;7777;52.254;9.618;2022-07-22T05:13:27;18.50;99.90
15355;DHT22;7777;52.254;9.618;2022-07-22T05:15:53;18.50;99.90
15355;DHT22;7777;52.254;9.618;2022-07-22T05:18:19;18.50;99.90
15355;DHT22;7777;52.254;9.618;2022-07-22T05:20:45;18.50;99.90
15355;DHT22;7777;52.254;9.618;2022-07-22T05:23:10;18.50;99.90
15355;DHT22;7777;52.254;9.618;2022-07-22T05:25:36;18.50;99.90
15355;DHT22;7777;52.254;9.618;2022-07-22T05:28:02;18.50;99.90
15355;DHT22;7777;52.254;9.618;2022-07-22T05:30:28;18.50;99.90
15355;DHT22;7777;52.254;9.618;2022-07-22T05:32:54;18.50;99.90
15355;DHT22;7777;52.254;9.618;2022-07-22T05:35:20;18.40;99.90
15355;DHT22;7777;52.254;9.618;2022-07-22T05:37:46;18.40;99.90
15355;DHT22;7777;52.254;9.618;2022-07-22T05:40:12;18.40;99.90
15355;DHT22;7777;52.254;9.618;2022-07-22T05:42:38;18.40;99.90
15355;DHT22;7777;52.254;9.618;2022-07-22T05:45:04;18.40;99.90
15355;DHT22;7777;52.254;9.618;2022-07-22T05:47:30;18.40;99.90
15355;DHT22;7777;52.254;9.618;2022-07-22T05:49:56;18.40;99.90
15355;DHT22;7777;52.254;9.618;2022-07-22T05:52:22;18.40;99.90
15355;DHT22;7777;52.254;9.618;2022-07-22T05:54:47;18.30;99.90
15355;DHT22;7777;52.254;9.618;2022-07-22T05:57:13;18.30;99.90
15355;DHT22;7777;52.254;9.618;2022-07-22T05:59:39;18.30;99.90
15355;DHT22;7777;52.254;9.618;2022-07-22T06:02:06;18.30;99.90
15355;DHT22;7777;52.254;9.618;2022-07-22T06:04:31;18.30;99.90
15355;DHT22;7777;52.254;9.618;2022-07-22T06:06:57;18.30;99.90
15355;DHT22;7777;52.254;9.618;2022-07-22T06:09:23;18.30;99.90
15355;DHT22;7777;52.254;9.618;2022-07-22T06:11:49;18.30;99.90
15355;DHT22;7777;52.254;9.618;2022-07-22T06:14:14;18.30;99.90
15355;DHT22;7777;52.254;9.618;2022-07-22T06:16:40;18.30;99.90
15355;DHT22;7777;52.254;9.618;2022-07-22T06:19:06;18.40;99.90
15355;DHT22;7777;52.254;9.618;2022-07-22T06:21:31;18.40;99.90
15355;DHT22;7777;52.254;9.618;2022-07-22T06:23:57;18.40;99.90
15355;DHT22;7777;52.254;9.618;2022-07-22T06:26:23;18.40;99.90
15355;DHT22;7777;52.254;9.618;2022-07-22T06:28:49;18.40;99.90
15355;DHT22;7777;52.254;9.618;2022-07-22T06:31:15;18.40;99.90
15355;DHT22;7777;52.254;9.618;2022-07-22T06:33:42;18.40;99.90
15355;DHT22;7777;52.254;9.618;2022-07-22T06:36:08;18.40;99.90
15355;DHT22;7777;52.254;9.618;2022-07-22T06:38:34;18.40;99.90
15355;DHT22;7777;52.254;9.618;2022-07-22T06:40:59;18.30;99.90
15355;DHT22;7777;52.254;9.618;2022-07-22T06:43:27;18.30;99.90
15355;DHT22;7777;52.254;9.618;2022-07-22T06:45:54;18.30;99.90
15355;DHT22;7777;52.254;9.618;2022-07-22T06:48:19;18.30;99.90
15355;DHT22;7777;52.254;9.618;2022-07-22T06:50:45;18.30;99.90
15355;DHT22;7777;52.254;9.618;2022-07-22T06:53:11;18.30;99.90
15355;DHT22;7777;52.254;9.618;2022-07-22T06:55:37;18.30;99.90
15355;DHT22;7777;52.254;9.618;2022-07-22T06:58:02;18.30;99.90
15355;DHT22;7777;52.254;9.618;2022-07-22T07:00:28;18.30;99.90
15355;DHT22;7777;52.254;9.618;2022-07-22T07:02:58;18.30;99.90
15355;DHT22;7777;52.254;9.618;2022-07-22T07:05:25;18.30;99.90
15355;DHT22;7777;52.254;9.618;2022-07-22T07:07:52;18.40;99.90
15355;DHT22;7777;52.254;9.618;2022-07-22T07:10:18;18.40;99.90
15355;DHT22;7777;52.254;9.618;2022-07-22T07:12:44;18.40;99.90
15355;DHT22;7777;52.254;9.618;2022-07-22T07:15:11;18.50;99.90
15355;DHT22;7777;52.254;9.618;2022-07-22T07:17:37;18.50;99.90
15355;DHT22;7777;52.254;9.618;2022-07-22T07:20:04;18.50;99.90
15355;DHT22;7777;52.254;9.618;2022-07-22T07:22:31;18.60;99.90
15355;DHT22;7777;52.254;9.618;2022-07-22T07:25:01;18.60;99.90
15355;DHT22;7777;52.254;9.618;2022-07-22T07:27:30;18.60;99.90
15355;DHT22;7777;52.254;9.618;2022-07-22T07:29:56;18.60;99.90
15355;DHT22;7777;52.254;9.618;2022-07-22T07:32:22;18.70;99.90
15355;DHT22;7777;52.254;9.618;2022-07-22T07:34:48;18.80;99.90
15355;DHT22;7777;52.254;9.618;2022-07-22T07:37:13;18.80;99.90
15355;DHT22;7777;52.254;9.618;2022-07-22T07:39:39;18.90;99.90
15355;DHT22;7777;52.254;9.618;2022-07-22T07:42:05;19.00;99.90
15355;DHT22;7777;52.254;9.618;2022-07-22T07:44:31;19.10;99.90
15355;DHT22;7777;52.254;9.618;2022-07-22T07:46:56;19.10;99.90
15355;DHT22;7777;52.254;9.618;2022-07-22T07:49:22;19.20;99.90
15355;DHT22;7777;52.254;9.618;2022-07-22T07:51:48;19.30;99.90
15355;DHT22;7777;52.254;9.618;2022-07-22T07:54:14;19.30;99.90
15355;DHT22;7777;52.254;9.618;2022-07-22T07:56:40;19.40;99.90
15355;DHT22;7777;52.254;9.618;2022-07-22T07:59:06;19.30;99.90
15355;DHT22;7777;52.254;9.618;2022-07-22T08:01:32;19.30;99.90
15355;DHT22;7777;52.254;9.618;2022-07-22T08:03:57;19.30;99.90
15355;DHT22;7777;52.254;9.618;2022-07-22T08:06:23;19.30;99.90
15355;DHT22;7777;52.254;9.618;2022-07-22T08:08:49;19.20;99.90
15355;DHT22;7777;52.254;9.618;2022-07-22T08:11:14;19.20;99.90
15355;DHT22;7777;52.254;9.618;2022-07-22T08:13:40;19.20;99.90
15355;DHT22;7777;52.254;9.618;2022-07-22T08:16:06;19.10;99.90
15355;DHT22;7777;52.254;9.618;2022-07-22T08:18:32;19.10;99.90
15355;DHT22;7777;52.254;9.618;2022-07-22T08:20:58;19.10;99.90
15355;DHT22;7777;52.254;9.618;2022-07-22T08:23:23;19.10;99.90
15355;DHT22;7777;52.254;9.618;2022-07-22T08:25:49;19.20;99.90
15355;DHT22;7777;52.254;9.618;2022-07-22T08:28:15;19.20;99.90
15355;DHT22;7777;52.254;9.618;2022-07-22T08:30:42;19.20;99.90
15355;DHT22;7777;52.254;9.618;2022-07-22T08:33:08;19.20;99.70
15355;DHT22;7777;52.254;9.618;2022-07-22T08:35:34;19.30;99.90
15355;DHT22;7777;52.254;9.618;2022-07-22T08:38:00;19.30;99.60
15355;DHT22;7777;52.254;9.618;2022-07-22T08:40:27;19.40;99.40
15355;DHT22;7777;52.254;9.618;2022-07-22T08:42:53;19.40;99.20
15355;DHT22;7777;52.254;9.618;2022-07-22T08:45:19;19.40;99.20
15355;DHT22;7777;52.254;9.618;2022-07-22T08:47:47;19.40;99.10
15355;DHT22;7777;52.254;9.618;2022-07-22T08:50:15;19.50;99.00
15355;DHT22;7777;52.254;9.618;2022-07-22T08:52:41;19.50;98.90
15355;DHT22;7777;52.254;9.618;2022-07-22T08:55:08;19.50;98.70
15355;DHT22;7777;52.254;9.618;2022-07-22T08:57:35;19.50;99.00
15355;DHT22;7777;52.254;9.618;2022-07-22T09:00:10;19.50;98.90
15355;DHT22;7777;52.254;9.618;2022-07-22T09:02:39;19.50;98.60
15355;DHT22;7777;52.254;9.618;2022-07-22T09:05:08;19.50;98.70
15355;DHT22;7777;52.254;9.618;2022-07-22T09:07:37;19.50;98.60
15355;DHT22;7777;52.254;9.618;2022-07-22T09:10:10;19.50;98.80
15355;DHT22;7777;52.254;9.618;2022-07-22T09:15:52;19.50;98.80
15355;DHT22;7777;52.254;9.618;2022-07-22T09:18:20;19.50;98.80
15355;DHT22;7777;52.254;9.618;2022-07-22T09:20:46;19.50;98.40
15355;DHT22;7777;52.254;9.618;2022-07-22T09:23:15;19.50;98.70
15355;DHT22;7777;52.254;9.618;2022-07-22T09:25:47;19.60;98.50
15355;DHT22;7777;52.254;9.618;2022-07-22T09:28:16;19.60;98.80
15355;DHT22;7777;52.254;9.618;2022-07-22T09:30:49;19.70;98.90
15355;DHT22;7777;52.254;9.618;2022-07-22T09:33:17;19.70;98.90
15355;DHT22;7777;52.254;9.618;2022-07-22T09:35:44;19.70;98.90
15355;DHT22;7777;52.254;9.618;2022-07-22T09:38:12;19.80;98.80
15355;DHT22;7777;52.254;9.618;2022-07-22T09:40:42;19.90;98.90
15355;DHT22;7777;52.254;9.618;2022-07-22T09:43:14;20.00;98.60
15355;DHT22;7777;52.254;9.618;2022-07-22T09:45:53;20.00;98.50
15355;DHT22;7777;52.254;9.618;2022-07-22T09:48:22;20.10;98.70
15355;DHT22;7777;52.254;9.618;2022-07-22T09:50:50;20.10;98.40
15355;DHT22;7777;52.254;9.618;2022-07-22T09:53:19;20.20;98.50
15355;DHT22;7777;52.254;9.618;2022-07-22T09:55:46;20.30;98.80
15355;DHT22;7777;52.254;9.618;2022-07-22T09:58:12;20.40;98.70
15355;DHT22;7777;52.254;9.618;2022-07-22T10:00:39;20.40;98.50
15355;DHT22;7777;52.254;9.618;2022-07-22T10:03:08;20.50;98.20
15355;DHT22;7777;52.254;9.618;2022-07-22T10:05:38;20.50;98.00
15355;DHT22;7777;52.254;9.618;2022-07-22T10:08:28;20.60;97.70
15355;DHT22;7777;52.254;9.618;2022-07-22T10:11:31;20.60;97.90
15355;DHT22;7777;52.254;9.618;2022-07-22T10:13:58;20.70;97.60
15355;DHT22;7777;52.254;9.618;2022-07-22T10:16:24;20.70;97.60
15355;DHT22;7777;52.254;9.618;2022-07-22T10:18:50;20.80;97.60
15355;DHT22;7777;52.254;9.618;2022-07-22T10:21:17;20.90;97.70
15355;DHT22;7777;52.254;9.618;2022-07-22T10:24:15;21.00;97.50
15355;DHT22;7777;52.254;9.618;2022-07-22T10:26:52;21.00;97.30
15355;DHT22;7777;52.254;9.618;2022-07-22T10:29:41;21.10;97.40
15355;DHT22;7777;52.254;9.618;2022-07-22T10:40:24;21.20;96.80
15355;DHT22;7777;52.254;9.618;2022-07-22T10:48:11;21.30;96.50
15355;DHT22;7777;52.254;9.618;2022-07-22T10:50:43;21.30;96.50
15355;DHT22;7777;52.254;9.618;2022-07-22T10:53:16;21.30;96.40
15355;DHT22;7777;52.254;9.618;2022-07-22T10:58:59;21.30;96.20
15355;DHT22;7777;52.254;9.618;2022-07-22T11:01:36;21.30;96.10
15355;DHT22;7777;52.254;9.618;2022-07-22T11:06:46;21.30;96.00
15355;DHT22;7777;52.254;9.618;2022-07-22T11:09:13;21.20;96.00
15355;DHT22;7777;52.254;9.618;2022-07-22T11:11:53;21.20;96.00
15355;DHT22;7777;52.254;9.618;2022-07-22T11:14:26;21.20;95.90
15355;DHT22;7777;52.254;9.618;2022-07-22T11:19:33;21.20;96.10
15355;DHT22;7777;52.254;9.618;2022-07-22T11:22:06;21.20;95.90
15355;DHT22;7777;52.254;9.618;2022-07-22T11:24:34;21.20;95.90
15355;DHT22;7777;52.254;9.618;2022-07-22T11:27:02;21.10;95.80
15355;DHT22;7777;52.254;9.618;2022-07-22T11:29:36;21.10;95.80
15355;DHT22;7777;52.254;9.618;2022-07-22T11:32:13;21.10;95.70
15355;DHT22;7777;52.254;9.618;2022-07-22T11:34:41;21.10;95.70
15355;DHT22;7777;52.254;9.618;2022-07-22T11:37:11;21.10;95.70
15355;DHT22;7777;52.254;9.618;2022-07-22T11:39:40;21.10;95.80
15355;DHT22;7777;52.254;9.618;2022-07-22T11:42:06;21.10;95.80
15355;DHT22;7777;52.254;9.618;2022-07-22T11:44:37;21.00;95.90
15355;DHT22;7777;52.254;9.618;2022-07-22T11:47:05;21.00;95.70
15355;DHT22;7777;52.254;9.618;2022-07-22T11:49:33;21.00;95.40
15355;DHT22;7777;52.254;9.618;2022-07-22T11:52:03;21.00;95.50
15355;DHT22;7777;52.254;9.618;2022-07-22T11:54:29;21.00;95.60
15355;DHT22;7777;52.254;9.618;2022-07-22T11:56:55;20.90;95.50
15355;DHT22;7777;52.254;9.618;2022-07-22T11:59:21;20.90;95.40
15355;DHT22;7777;52.254;9.618;2022-07-22T12:01:48;20.80;95.30
15355;DHT22;7777;52.254;9.618;2022-07-22T12:04:26;20.80;95.50
15355;DHT22;7777;52.254;9.618;2022-07-22T12:07:07;20.80;95.40
15355;DHT22;7777;52.254;9.618;2022-07-22T12:09:38;20.70;95.30
15355;DHT22;7777;52.254;9.618;2022-07-22T12:12:06;20.70;95.50
15355;DHT22;7777;52.254;9.618;2022-07-22T12:14:33;20.70;95.40
15355;DHT22;7777;52.254;9.618;2022-07-22T12:17:08;20.80;95.30
15355;DHT22;7777;52.254;9.618;2022-07-22T12:19:36;20.80;95.50
15355;DHT22;7777;52.254;9.618;2022-07-22T12:22:22;20.70;95.60
15355;DHT22;7777;52.254;9.618;2022-07-22T12:25:01;20.70;95.20
15355;DHT22;7777;52.254;9.618;2022-07-22T12:27:27;20.70;95.80
15355;DHT22;7777;52.254;9.618;2022-07-22T12:29:53;20.70;95.50
15355;DHT22;7777;52.254;9.618;2022-07-22T12:35:02;20.80;95.40
15355;DHT22;7777;52.254;9.618;2022-07-22T12:37:41;20.80;95.40
15355;DHT22;7777;52.254;9.618;2022-07-22T12:40:10;20.90;95.50
15355;DHT22;7777;52.254;9.618;2022-07-22T12:42:45;20.90;95.40
15355;DHT22;7777;52.254;9.618;2022-07-22T12:45:17;21.00;95.40
15355;DHT22;7777;52.254;9.618;2022-07-22T12:50:41;21.00;95.20
15355;DHT22;7777;52.254;9.618;2022-07-22T12:53:12;21.00;95.10
15355;DHT22;7777;52.254;9.618;2022-07-22T12:58:15;21.10;95.20
15355;DHT22;7777;52.254;9.618;2022-07-22T13:00:49;21.10;95.20
15355;DHT22;7777;52.254;9.618;2022-07-22T13:03:19;21.10;95.00
15355;DHT22;7777;52.254;9.618;2022-07-22T13:05:51;21.10;94.80
15355;DHT22;7777;52.254;9.618;2022-07-22T13:08:19;21.00;94.70
15355;DHT22;7777;52.254;9.618;2022-07-22T13:10:45;21.10;94.80
15355;DHT22;7777;52.254;9.618;2022-07-22T13:13:10;21.10;94.80
15355;DHT22;7777;52.254;9.618;2022-07-22T13:15:37;21.10;94.80
15355;DHT22;7777;52.254;9.618;2022-07-22T13:18:04;21.10;94.70
15355;DHT22;7777;52.254;9.618;2022-07-22T13:20:31;21.10;94.70
15355;DHT22;7777;52.254;9.618;2022-07-22T13:22:57;21.10;94.60
15355;DHT22;7777;52.254;9.618;2022-07-22T13:25:23;21.10;94.70
15355;DHT22;7777;52.254;9.618;2022-07-22T13:27:52;21.10;94.60
15355;DHT22;7777;52.254;9.618;2022-07-22T13:30:18;21.10;94.70
15355;DHT22;7777;52.254;9.618;2022-07-22T13:32:44;21.10;94.60
15355;DHT22;7777;52.254;9.618;2022-07-22T13:35:10;21.10;94.70
15355;DHT22;7777;52.254;9.618;2022-07-22T13:37:36;21.10;94.70
15355;DHT22;7777;52.254;9.618;2022-07-22T13:40:03;21.10;94.70
15355;DHT22;7777;52.254;9.618;2022-07-22T13:42:29;21.10;94.70
15355;DHT22;7777;52.254;9.618;2022-07-22T13:44:55;21.10;94.70
15355;DHT22;7777;52.254;9.618;2022-07-22T13:47:21;21.10;94.60
15355;DHT22;7777;52.254;9.618;2022-07-22T13:49:48;21.10;94.60
15355;DHT22;7777;52.254;9.618;2022-07-22T13:52:14;21.00;94.80
15355;DHT22;7777;52.254;9.618;2022-07-22T13:54:41;21.00;94.60
15355;DHT22;7777;52.254;9.618;2022-07-22T13:57:08;21.00;94.50
15355;DHT22;7777;52.254;9.618;2022-07-22T13:59:35;21.00;94.60
15355;DHT22;7777;52.254;9.618;2022-07-22T14:02:01;21.00;94.80
15355;DHT22;7777;52.254;9.618;2022-07-22T14:04:27;21.00;94.70
15355;DHT22;7777;52.254;9.618;2022-07-22T14:06:53;21.00;94.70
15355;DHT22;7777;52.254;9.618;2022-07-22T14:09:19;21.00;94.60
15355;DHT22;7777;52.254;9.618;2022-07-22T14:11:45;21.00;94.60
15355;DHT22;7777;52.254;9.618;2022-07-22T14:14:10;21.00;94.60
15355;DHT22;7777;52.254;9.618;2022-07-22T14:16:36;21.00;94.60
15355;DHT22;7777;52.254;9.618;2022-07-22T14:19:08;21.00;94.50
15355;DHT22;7777;52.254;9.618;2022-07-22T14:21:36;21.00;94.50
15355;DHT22;7777;52.254;9.618;2022-07-22T14:24:04;21.00;94.60
15355;DHT22;7777;52.254;9.618;2022-07-22T14:26:30;21.00;94.40
15355;DHT22;7777;52.254;9.618;2022-07-22T14:28:56;21.00;94.40
15355;DHT22;7777;52.254;9.618;2022-07-22T14:31:22;21.00;94.30
15355;DHT22;7777;52.254;9.618;2022-07-22T14:33:48;21.00;94.40
15355;DHT22;7777;52.254;9.618;2022-07-22T14:36:14;21.00;94.30
15355;DHT22;7777;52.254;9.618;2022-07-22T14:38:41;20.90;94.30
15355;DHT22;7777;52.254;9.618;2022-07-22T14:41:07;20.90;94.40
15355;DHT22;7777;52.254;9.618;2022-07-22T14:43:34;20.90;94.60
15355;DHT22;7777;52.254;9.618;2022-07-22T14:46:00;20.90;94.50
15355;DHT22;7777;52.254;9.618;2022-07-22T14:48:27;20.90;94.40
15355;DHT22;7777;52.254;9.618;2022-07-22T14:50:53;20.90;94.30
15355;DHT22;7777;52.254;9.618;2022-07-22T14:53:19;20.80;94.30
15355;DHT22;7777;52.254;9.618;2022-07-22T14:55:45;20.80;94.30
15355;DHT22;7777;52.254;9.618;2022-07-22T14:58:11;20.80;94.40
15355;DHT22;7777;52.254;9.618;2022-07-22T15:00:37;20.90;94.50
15355;DHT22;7777;52.254;9.618;2022-07-22T15:03:05;20.90;94.50
15355;DHT22;7777;52.254;9.618;2022-07-22T15:05:31;20.90;94.50
15355;DHT22;7777;52.254;9.618;2022-07-22T15:07:57;20.80;94.70
15355;DHT22;7777;52.254;9.618;2022-07-22T15:10:23;20.80;94.50
15355;DHT22;7777;52.254;9.618;2022-07-22T15:12:48;20.80;94.50
15355;DHT22;7777;52.254;9.618;2022-07-22T15:15:14;20.80;94.60
15355;DHT22;7777;52.254;9.618;2022-07-22T15:17:40;20.80;94.50
15355;DHT22;7777;52.254;9.618;2022-07-22T15:20:07;20.90;94.50
15355;DHT22;7777;52.254;9.618;2022-07-22T15:22:33;20.80;94.50
15355;DHT22;7777;52.254;9.618;2022-07-22T15:24:59;20.80;94.50
15355;DHT22;7777;52.254;9.618;2022-07-22T15:27:25;20.80;94.60
15355;DHT22;7777;52.254;9.618;2022-07-22T15:29:50;20.80;94.60
15355;DHT22;7777;52.254;9.618;2022-07-22T15:32:17;20.80;94.50
15355;DHT22;7777;52.254;9.618;2022-07-22T15:34:43;20.80;94.50
15355;DHT22;7777;52.254;9.618;2022-07-22T15:37:09;20.80;94.80
15355;DHT22;7777;52.254;9.618;2022-07-22T15:39:35;20.80;94.50
15355;DHT22;7777;52.254;9.618;2022-07-22T15:42:01;20.80;94.60
15355;DHT22;7777;52.254;9.618;2022-07-22T15:44:27;20.80;94.70
15355;DHT22;7777;52.254;9.618;2022-07-22T15:46:53;20.80;94.50
15355;DHT22;7777;52.254;9.618;2022-07-22T15:49:24;20.90;94.40
15355;DHT22;7777;52.254;9.618;2022-07-22T15:51:49;20.90;94.50
15355;DHT22;7777;52.254;9.618;2022-07-22T15:54:15;20.80;94.40
15355;DHT22;7777;52.254;9.618;2022-07-22T15:56:41;20.80;94.40
15355;DHT22;7777;52.254;9.618;2022-07-22T15:59:07;20.80;94.50
15355;DHT22;7777;52.254;9.618;2022-07-22T16:01:51;20.80;94.50
15355;DHT22;7777;52.254;9.618;2022-07-22T16:04:18;20.70;94.60
15355;DHT22;7777;52.254;9.618;2022-07-22T16:06:44;20.70;94.50
15355;DHT22;7777;52.254;9.618;2022-07-22T16:09:10;20.70;94.70
15355;DHT22;7777;52.254;9.618;2022-07-22T16:11:36;20.70;94.50
15355;DHT22;7777;52.254;9.618;2022-07-22T16:14:02;20.70;94.50
15355;DHT22;7777;52.254;9.618;2022-07-22T16:16:28;20.70;94.70
15355;DHT22;7777;52.254;9.618;2022-07-22T16:18:54;20.70;94.60